createdAt,value
2017-07-29T00:00:08.200Z,30.5
2017-07-29T00:01:02.953Z,30.4
2017-07-29T00:02:03.001Z,30.5
2017-07-29T00:03:03.034Z,30.5
2017-07-29T00:04:03.354Z,30.4
2017-07-29T00:05:08.363Z,30.5
2017-07-29T00:06:08.449Z,30.5
2017-07-29T00:07:08.477Z,30.5
2017-07-29T00:08:08.182Z,30.5
2017-07-29T00:09:06.233Z,30.4
2017-07-29T00:10:08.378Z,30.5
2017-07-29T00:11:06.805Z,30.5
2017-07-29T00:12:03.718Z,30.4
2017-07-29T00:13:03.757Z,30.4
2017-07-29T00:14:03.604Z,30.5
2017-07-29T00:15:03.780Z,30.5
2017-07-29T00:16:06.789Z,30.4
2017-07-29T00:17:06.841Z,30.4
2017-07-29T00:18:06.975Z,30.4
2017-07-29T00:19:07.011Z,30.4
2017-07-29T00:20:06.768Z,30.4
2017-07-29T00:21:08.890Z,30.4
2017-07-29T00:22:09.204Z,30.4
2017-07-29T00:23:04.319Z,30.4
2017-07-29T00:24:04.038Z,30.4
2017-07-29T00:25:04.090Z,30.4
2017-07-29T00:26:04.385Z,30.4
2017-07-29T00:27:09.157Z,30.4
2017-07-29T00:28:09.227Z,30.4
2017-07-29T00:29:07.480Z,30.4
2017-07-29T00:30:07.349Z,30.4
2017-07-29T00:31:04.864Z,30.4
2017-07-29T00:32:04.635Z,30.4
2017-07-29T00:33:04.664Z,30.4
2017-07-29T00:34:04.685Z,30.4
2017-07-29T00:35:05.374Z,30.4
2017-07-29T00:36:07.693Z,30.4
2017-07-29T00:37:04.860Z,30.4
2017-07-29T00:38:04.901Z,30.4
2017-07-29T00:39:05.233Z,30.4
2017-07-29T00:40:08.125Z,30.4
2017-07-29T00:41:05.405Z,30.4
2017-07-29T00:42:05.077Z,30.4
2017-07-29T00:43:05.128Z,30.4
2017-07-29T00:44:05.154Z,30.5
2017-07-29T00:45:10.192Z,30.4
2017-07-29T00:46:05.535Z,30.4
2017-07-29T00:47:08.390Z,30.4
2017-07-29T00:48:05.336Z,30.4
2017-07-29T00:49:05.419Z,30.4
2017-07-29T00:50:05.452Z,30.4
2017-07-29T00:51:05.509Z,30.4
2017-07-29T00:52:10.816Z,30.4
2017-07-29T00:53:10.865Z,30.4
2017-07-29T00:54:05.703Z,30.4
2017-07-29T00:55:05.731Z,30.4
2017-07-29T00:56:10.984Z,30.4
2017-07-29T00:57:05.836Z,30.4
2017-07-29T00:58:08.706Z,30.4
2017-07-29T00:59:06.251Z,30.4
2017-07-29T01:00:09.170Z,30.4
2017-07-29T01:01:05.999Z,30.4
2017-07-29T01:02:10.999Z,30.4
2017-07-29T01:03:08.937Z,30.4
2017-07-29T01:04:06.196Z,30.4
2017-07-29T01:05:11.426Z,30.4
2017-07-29T01:06:09.185Z,30.4
2017-07-29T01:07:11.536Z,30.4
2017-07-29T01:08:11.330Z,30.4
2017-07-29T01:09:11.615Z,30.4
2017-07-29T01:10:06.388Z,30.4
2017-07-29T01:11:11.961Z,30.4
2017-07-29T01:12:09.333Z,30.4
2017-07-29T01:13:06.550Z,30.4
2017-07-29T01:14:09.875Z,30.4
2017-07-29T01:15:06.695Z,30.4
2017-07-29T01:16:07.554Z,30.4
2017-07-29T01:17:07.055Z,30.4
2017-07-29T01:18:11.960Z,30.4
2017-07-29T01:19:07.320Z,30.4
2017-07-29T01:20:07.072Z,30.4
2017-07-29T01:21:10.586Z,30.4
2017-07-29T01:22:13.478Z,30.4
2017-07-29T01:23:07.448Z,30.4
2017-07-29T01:24:10.404Z,30.4
2017-07-29T01:25:10.491Z,30.4
2017-07-29T01:26:07.392Z,30.4
2017-07-29T01:27:07.752Z,30.4
2017-07-29T01:28:07.533Z,30.4
2017-07-29T01:29:08.926Z,30.4
2017-07-29T01:30:12.926Z,30.4
2017-07-29T01:31:07.884Z,30.4
2017-07-29T01:32:07.629Z,30.4
2017-07-29T01:33:07.956Z,30.4
2017-07-29T01:34:12.990Z,30.4
2017-07-29T01:35:07.976Z,30.4
2017-07-29T01:36:07.761Z,30.4
2017-07-29T01:37:10.930Z,30.4
2017-07-29T01:38:10.621Z,30.4
2017-07-29T01:39:10.664Z,30.4
2017-07-29T01:40:10.651Z,30.4
2017-07-29T01:41:11.158Z,30.4
2017-07-29T01:42:11.129Z,30.4
2017-07-29T01:43:08.053Z,30.4
2017-07-29T01:44:08.151Z,30.4
2017-07-29T01:45:13.504Z,30.4
2017-07-29T01:46:08.351Z,30.4
2017-07-29T01:47:13.576Z,30.4
2017-07-29T01:48:11.129Z,30.4
2017-07-29T01:49:08.739Z,30.4
2017-07-29T01:50:08.733Z,30.4
2017-07-29T01:51:08.584Z,30.4
2017-07-29T01:52:13.601Z,30.4
2017-07-29T01:53:09.255Z,30.4
2017-07-29T01:54:14.023Z,30.4
2017-07-29T01:55:08.776Z,30.4
2017-07-29T01:56:15.180Z,30.4
2017-07-29T01:57:13.948Z,30.4
2017-07-29T01:58:08.963Z,30.4
2017-07-29T01:59:09.344Z,30.4
2017-07-29T02:00:12.309Z,30.3
2017-07-29T02:01:12.329Z,30.4
2017-07-29T02:02:14.159Z,30.4
2017-07-29T02:03:09.447Z,30.4
2017-07-29T02:04:09.295Z,30.4
2017-07-29T02:05:09.903Z,30.4
2017-07-29T02:06:12.252Z,30.4
2017-07-29T02:07:09.712Z,30.4
2017-07-29T02:08:09.765Z,30.4
2017-07-29T02:09:09.526Z,30.4
2017-07-29T02:10:14.785Z,30.4
2017-07-29T02:11:10.209Z,30.4
2017-07-29T02:12:09.608Z,30.4
2017-07-29T02:13:09.897Z,30.4
2017-07-29T02:14:09.697Z,30.4
2017-07-29T02:15:09.676Z,30.4
2017-07-29T02:16:15.101Z,30.4
2017-07-29T02:17:10.159Z,30.4
2017-07-29T02:18:13.160Z,30.4
2017-07-29T02:19:10.060Z,30.4
2017-07-29T02:20:13.021Z,30.4
2017-07-29T02:21:10.249Z,30.4
2017-07-29T02:22:15.637Z,30.4
2017-07-29T02:23:13.263Z,30.4
2017-07-29T02:24:15.736Z,30.4
2017-07-29T02:25:10.549Z,30.4
2017-07-29T02:26:15.568Z,30.4
2017-07-29T02:27:13.826Z,30.4
2017-07-29T02:28:14.002Z,30.4
2017-07-29T02:29:13.531Z,30.4
2017-07-29T02:30:13.925Z,30.4
2017-07-29T02:31:13.990Z,30.4
2017-07-29T02:32:10.946Z,30.4
2017-07-29T02:33:11.007Z,30.4
2017-07-29T02:34:16.695Z,30.4
2017-07-29T02:35:11.505Z,30.4
2017-07-29T02:36:11.608Z,30.4
2017-07-29T02:37:11.391Z,30.4
2017-07-29T02:38:11.715Z,30.4
2017-07-29T02:39:11.650Z,30.4
2017-07-29T02:40:11.929Z,30.4
2017-07-29T02:41:11.757Z,30.4
2017-07-29T02:42:11.822Z,30.4
2017-07-29T02:43:11.827Z,30.4
2017-07-29T02:44:16.612Z,30.4
2017-07-29T02:45:12.037Z,30.4
2017-07-29T02:46:17.280Z,30.4
2017-07-29T02:47:14.777Z,30.4
2017-07-29T02:48:16.661Z,30.4
2017-07-29T02:49:16.648Z,30.4
2017-07-29T02:50:14.652Z,30.4
2017-07-29T02:51:12.210Z,30.4
2017-07-29T02:52:12.473Z,30.4
2017-07-29T02:53:17.286Z,30.4
2017-07-29T02:54:15.196Z,30.4
2017-07-29T02:55:17.086Z,30.4
2017-07-29T02:56:17.399Z,30.4
2017-07-29T02:57:12.132Z,30.4
2017-07-29T02:58:12.395Z,30.4
2017-07-29T02:59:12.478Z,30.4
2017-07-29T03:00:12.204Z,30.4
2017-07-29T03:01:17.565Z,30.4
2017-07-29T03:02:17.690Z,30.4
2017-07-29T03:03:12.612Z,30.4
2017-07-29T03:04:15.758Z,30.4
2017-07-29T03:05:12.652Z,30.4
2017-07-29T03:06:12.451Z,30.4
2017-07-29T03:07:12.511Z,30.4
2017-07-29T03:08:17.451Z,30.4
2017-07-29T03:09:12.830Z,30.4
2017-07-29T03:10:12.916Z,30.4
2017-07-29T03:11:17.689Z,30.4
2017-07-29T03:12:12.868Z,30.4
2017-07-29T03:13:17.745Z,30.4
2017-07-29T03:14:16.015Z,30.4
2017-07-29T03:15:18.236Z,30.4
2017-07-29T03:16:18.459Z,30.4
2017-07-29T03:17:15.813Z,30.4
2017-07-29T03:18:17.931Z,30.4
2017-07-29T03:19:15.865Z,30.4
2017-07-29T03:20:13.125Z,30.4
2017-07-29T03:21:13.488Z,30.4
2017-07-29T03:22:18.482Z,30.4
2017-07-29T03:23:18.221Z,30.4
2017-07-29T03:24:13.331Z,30.4
2017-07-29T03:25:13.720Z,30.4
2017-07-29T03:26:13.735Z,30.4
2017-07-29T03:27:18.524Z,30.4
2017-07-29T03:28:17.050Z,30.4
2017-07-29T03:29:13.885Z,30.4
2017-07-29T03:30:16.856Z,30.4
2017-07-29T03:31:13.997Z,30.4
2017-07-29T03:32:19.017Z,30.4
2017-07-29T03:33:19.023Z,30.4
2017-07-29T03:34:16.918Z,30.4
2017-07-29T03:35:19.095Z,30.4
2017-07-29T03:36:16.685Z,30.4
2017-07-29T03:37:14.108Z,30.4
2017-07-29T03:38:19.176Z,30.4
2017-07-29T03:39:16.753Z,30.4
2017-07-29T03:40:14.220Z,30.4
2017-07-29T03:41:19.285Z,30.4
2017-07-29T03:42:16.842Z,30.4
2017-07-29T03:43:14.063Z,30.4
2017-07-29T03:44:14.171Z,30.4
2017-07-29T03:45:14.571Z,30.4
2017-07-29T03:46:14.883Z,30.4
2017-07-29T03:47:17.185Z,30.4
2017-07-29T03:48:14.723Z,30.4
2017-07-29T03:49:17.712Z,30.4
2017-07-29T03:50:17.379Z,30.4
2017-07-29T03:51:14.857Z,30.4
2017-07-29T03:52:15.183Z,30.4
2017-07-29T03:53:14.640Z,30.4
2017-07-29T03:54:15.024Z,30.4
2017-07-29T03:55:15.008Z,30.4
2017-07-29T03:56:20.068Z,30.4
2017-07-29T03:57:19.729Z,30.4
2017-07-29T03:58:15.395Z,30.4
2017-07-29T03:59:19.840Z,30.4
2017-07-29T04:00:15.197Z,30.4
2017-07-29T04:01:18.138Z,30.4
2017-07-29T04:02:17.903Z,30.4
2017-07-29T04:03:18.272Z,30.4
2017-07-29T04:04:15.720Z,30.4
2017-07-29T04:05:15.398Z,30.4
2017-07-29T04:06:18.033Z,30.4
2017-07-29T04:07:20.468Z,30.4
2017-07-29T04:08:15.558Z,30.4
2017-07-29T04:09:15.329Z,30.4
2017-07-29T04:10:18.542Z,30.4
2017-07-29T04:11:15.749Z,30.4
2017-07-29T04:12:18.405Z,30.4
2017-07-29T04:13:15.912Z,30.4
2017-07-29T04:14:18.563Z,30.4
2017-07-29T04:15:18.960Z,30.4
2017-07-29T04:16:19.309Z,30.4
2017-07-29T04:17:21.181Z,30.4
2017-07-29T04:18:16.282Z,30.4
2017-07-29T04:19:19.246Z,30.4
2017-07-29T04:20:19.299Z,30.4
2017-07-29T04:21:19.396Z,30.4
2017-07-29T04:22:16.868Z,30.4
2017-07-29T04:23:19.183Z,30.4
2017-07-29T04:24:21.355Z,30.4
2017-07-29T04:25:16.451Z,30.4
2017-07-29T04:26:16.757Z,30.4
2017-07-29T04:27:16.828Z,30.4
2017-07-29T04:28:17.202Z,30.4
2017-07-29T04:29:19.840Z,30.4
2017-07-29T04:30:16.754Z,30.4
2017-07-29T04:33:02.510Z,30.3
2017-07-29T04:33:57.937Z,30.4
2017-07-29T04:35:02.582Z,30.3
2017-07-29T04:35:57.694Z,30.4
2017-07-29T04:36:58.057Z,30.4
2017-07-29T04:37:58.134Z,30.4
2017-07-29T04:39:01.086Z,30.4
2017-07-29T04:40:03.202Z,30.4
2017-07-29T04:41:03.292Z,30.4
2017-07-29T04:41:58.085Z,30.4
2017-07-29T04:42:58.444Z,30.4
2017-07-29T04:44:03.477Z,30.4
2017-07-29T04:45:03.546Z,30.4
2017-07-29T04:46:03.893Z,30.4
2017-07-29T04:47:03.350Z,30.4
2017-07-29T04:48:01.642Z,30.4
2017-07-29T04:49:03.855Z,30.5
2017-07-29T04:50:03.596Z,30.5
2017-07-29T04:51:01.841Z,30.5
2017-07-29T04:51:59.289Z,30.4
2017-07-29T04:52:59.052Z,30.5
2017-07-29T04:53:59.104Z,30.4
2017-07-29T04:55:01.706Z,30.5
2017-07-29T04:55:58.897Z,30.5
2017-07-29T04:56:58.996Z,30.5
2017-07-29T04:58:04.242Z,30.5
2017-07-29T04:58:59.012Z,30.5
2017-07-29T05:00:02.283Z,30.5
2017-07-29T05:00:59.199Z,30.5
2017-07-29T05:01:59.566Z,30.5
2017-07-29T05:03:02.532Z,30.5
2017-07-29T05:04:04.974Z,30.6
2017-07-29T05:04:59.639Z,30.6
2017-07-29T05:05:59.414Z,30.6
2017-07-29T05:06:59.483Z,30.6
2017-07-29T05:08:04.845Z,30.6
2017-07-29T05:08:59.951Z,30.6
2017-07-29T05:10:00.178Z,30.5
2017-07-29T05:11:04.956Z,30.6
2017-07-29T05:11:59.740Z,30.6
2017-07-29T05:13:04.740Z,30.5
2017-07-29T05:13:59.813Z,30.6
2017-07-29T05:15:05.098Z,30.5
2017-07-29T05:16:02.988Z,30.6
2017-07-29T05:17:00.216Z,30.6
2017-07-29T05:18:00.314Z,30.6
2017-07-29T05:19:04.967Z,30.6
2017-07-29T05:20:00.039Z,30.6
2017-07-29T05:21:00.153Z,30.6
2017-07-29T05:22:03.649Z,30.6
2017-07-29T05:23:03.358Z,30.6
2017-07-29T05:24:00.533Z,30.7
2017-07-29T05:25:05.289Z,30.7
2017-07-29T05:26:00.358Z,30.7
2017-07-29T05:27:03.621Z,30.7
2017-07-29T05:28:05.702Z,30.7
2017-07-29T05:29:00.748Z,30.7
2017-07-29T05:30:05.856Z,30.7
2017-07-29T05:31:03.553Z,30.7
2017-07-29T05:32:00.636Z,30.7
2017-07-29T05:33:03.871Z,30.8
2017-07-29T05:34:01.048Z,30.7
2017-07-29T05:35:01.155Z,30.7
2017-07-29T05:36:05.904Z,30.8
2017-07-29T05:37:06.282Z,30.8
2017-07-29T05:38:01.357Z,30.8
2017-07-29T05:39:01.384Z,30.7
2017-07-29T05:40:01.148Z,30.8
2017-07-29T05:41:01.510Z,30.8
2017-07-29T05:42:01.261Z,30.8
2017-07-29T05:43:01.338Z,30.8
2017-07-29T05:44:01.645Z,30.8
2017-07-29T05:45:01.770Z,30.8
2017-07-29T05:46:01.467Z,30.8
2017-07-29T05:47:01.761Z,30.8
2017-07-29T05:48:08.021Z,30.8
2017-07-29T05:49:06.593Z,30.8
2017-07-29T05:50:01.956Z,30.8
2017-07-29T05:51:02.028Z,30.8
2017-07-29T05:52:02.113Z,30.8
2017-07-29T05:53:06.791Z,30.9
2017-07-29T05:54:02.173Z,30.9
2017-07-29T05:55:02.224Z,30.9
2017-07-29T05:56:02.320Z,30.9
2017-07-29T05:57:02.444Z,30.9
2017-07-29T05:58:04.960Z,30.9
2017-07-29T05:59:02.452Z,30.9
2017-07-29T06:00:07.211Z,30.9
2017-07-29T06:01:05.267Z,30.9
2017-07-29T06:02:07.345Z,30.9
2017-07-29T06:03:05.547Z,30.9
2017-07-29T06:04:07.774Z,30.9
2017-07-29T06:05:07.797Z,30.9
2017-07-29T06:06:07.515Z,30.9
2017-07-29T06:07:05.752Z,30.9
2017-07-29T06:08:07.625Z,30.9
2017-07-29T06:09:07.936Z,31
2017-07-29T06:10:07.646Z,31
2017-07-29T06:11:03.079Z,31
2017-07-29T06:12:03.190Z,31
2017-07-29T06:13:02.987Z,31
2017-07-29T06:14:08.266Z,31
2017-07-29T06:15:03.620Z,31
2017-07-29T06:16:03.377Z,31
2017-07-29T06:17:03.163Z,31.1
2017-07-29T06:18:08.420Z,31.1
2017-07-29T06:19:03.210Z,31.1
2017-07-29T06:20:08.228Z,31.1
2017-07-29T06:21:08.558Z,31.1
2017-07-29T06:22:06.229Z,31.1
2017-07-29T06:23:03.423Z,31.1
2017-07-29T06:24:06.689Z,31.1
2017-07-29T06:25:03.617Z,31.1
2017-07-29T06:26:03.651Z,31.1
2017-07-29T06:27:04.200Z,31.1
2017-07-29T06:28:08.652Z,31.2
2017-07-29T06:29:03.745Z,31.1
2017-07-29T06:30:06.681Z,31.1
2017-07-29T06:31:03.956Z,31.2
2017-07-29T06:32:06.840Z,31.2
2017-07-29T06:33:09.296Z,31.2
2017-07-29T06:34:04.133Z,31.2
2017-07-29T06:35:06.980Z,31.3
2017-07-29T06:36:09.184Z,31.3
2017-07-29T06:37:07.466Z,31.3
2017-07-29T06:38:09.252Z,31.3
2017-07-29T06:39:04.937Z,31.3
2017-07-29T06:40:04.686Z,31.3
2017-07-29T06:41:04.743Z,31.3
2017-07-29T06:42:09.461Z,31.2
2017-07-29T06:43:04.808Z,31.3
2017-07-29T06:44:07.758Z,31.3
2017-07-29T06:45:10.234Z,31.4
2017-07-29T06:46:09.696Z,31.4
2017-07-29T06:47:07.924Z,31.4
2017-07-29T06:48:05.184Z,31.4
2017-07-29T06:49:07.754Z,31.4
2017-07-29T06:50:05.058Z,31.5
2017-07-29T06:51:05.245Z,31.5
2017-07-29T06:52:05.327Z,31.5
2017-07-29T06:53:10.106Z,31.5
2017-07-29T06:54:08.051Z,31.5
2017-07-29T06:55:10.277Z,31.5
2017-07-29T06:56:08.138Z,31.5
2017-07-29T06:57:05.934Z,31.5
2017-07-29T06:58:05.457Z,31.5
2017-07-29T06:59:10.716Z,31.5
2017-07-29T07:00:05.822Z,31.5
2017-07-29T07:01:05.583Z,31.5
2017-07-29T07:02:05.869Z,31.5
2017-07-29T07:03:05.989Z,31.5
2017-07-29T07:04:08.883Z,31.5
2017-07-29T07:05:10.990Z,31.5
2017-07-29T07:06:08.955Z,31.5
2017-07-29T07:07:05.785Z,31.5
2017-07-29T07:08:05.885Z,31.6
2017-07-29T07:09:09.014Z,31.6
2017-07-29T07:10:11.246Z,31.6
2017-07-29T07:11:06.206Z,31.6
2017-07-29T07:12:09.203Z,31.6
2017-07-29T07:13:08.996Z,31.6
2017-07-29T07:14:06.415Z,31.6
2017-07-29T07:15:06.466Z,31.6
2017-07-29T07:16:09.434Z,31.6
2017-07-29T07:17:06.594Z,31.6
2017-07-29T07:18:11.251Z,31.6
2017-07-29T07:19:09.520Z,31.6
2017-07-29T07:20:06.662Z,31.6
2017-07-29T07:21:06.759Z,31.6
2017-07-29T07:22:06.512Z,31.6
2017-07-29T07:23:11.772Z,31.6
2017-07-29T07:24:06.841Z,31.6
2017-07-29T07:25:06.672Z,31.7
2017-07-29T07:26:06.687Z,31.7
2017-07-29T07:27:10.203Z,31.7
2017-07-29T07:28:11.673Z,31.7
2017-07-29T07:29:09.606Z,31.7
2017-07-29T07:30:09.680Z,31.7
2017-07-29T07:31:09.718Z,31.7
2017-07-29T07:32:10.764Z,31.7
2017-07-29T07:33:07.580Z,31.7
2017-07-29T07:34:11.943Z,31.7
2017-07-29T07:35:12.329Z,31.7
2017-07-29T07:36:12.367Z,31.6
2017-07-29T07:37:12.099Z,31.7
2017-07-29T07:38:07.240Z,31.7
2017-07-29T07:39:12.488Z,31.7
2017-07-29T07:40:07.314Z,31.6
2017-07-29T07:41:07.328Z,31.6
2017-07-29T07:42:07.617Z,31.6
2017-07-29T07:43:07.389Z,31.6
2017-07-29T07:44:12.783Z,31.7
2017-07-29T07:45:10.652Z,31.7
2017-07-29T07:46:12.535Z,31.7
2017-07-29T07:47:10.509Z,31.7
2017-07-29T07:48:10.911Z,31.7
2017-07-29T07:49:08.021Z,31.7
2017-07-29T07:50:07.730Z,31.8
2017-07-29T07:51:10.867Z,31.8
2017-07-29T07:52:11.011Z,31.8
2017-07-29T07:53:07.814Z,31.8
2017-07-29T07:54:07.865Z,31.8
2017-07-29T07:55:11.030Z,31.8
2017-07-29T07:56:13.122Z,31.8
2017-07-29T07:57:08.238Z,31.8
2017-07-29T07:58:07.952Z,31.8
2017-07-29T07:59:08.273Z,31.8
2017-07-29T08:00:08.143Z,31.9
2017-07-29T08:01:13.506Z,31.9
2017-07-29T08:02:08.550Z,31.9
2017-07-29T08:03:08.866Z,31.8
2017-07-29T08:04:11.234Z,31.8
2017-07-29T08:05:08.714Z,31.8
2017-07-29T08:06:11.691Z,31.8
2017-07-29T08:07:13.843Z,31.9
2017-07-29T08:08:08.849Z,31.9
2017-07-29T08:09:14.147Z,31.8
2017-07-29T08:10:14.038Z,31.9
2017-07-29T08:11:11.628Z,31.9
2017-07-29T08:12:08.898Z,32
2017-07-29T08:13:14.170Z,32.1
2017-07-29T08:14:14.316Z,32.1
2017-07-29T08:15:09.269Z,32.1
2017-07-29T08:16:12.189Z,32.1
2017-07-29T08:17:09.097Z,32.1
2017-07-29T08:18:09.529Z,32.1
2017-07-29T08:19:09.524Z,32
2017-07-29T08:20:12.136Z,32.1
2017-07-29T08:21:12.739Z,32.2
2017-07-29T08:22:09.617Z,32.2
2017-07-29T08:23:09.395Z,32.2
2017-07-29T08:24:09.522Z,32.3
2017-07-29T08:25:09.858Z,32.3
2017-07-29T08:26:09.805Z,32.3
2017-07-29T08:27:09.864Z,32.3
2017-07-29T08:28:12.894Z,32.3
2017-07-29T08:29:12.523Z,32.2
2017-07-29T08:30:12.976Z,32.3
2017-07-29T08:31:12.681Z,32.3
2017-07-29T08:32:13.022Z,32.4
2017-07-29T08:33:13.946Z,32.4
2017-07-29T08:34:13.056Z,32.4
2017-07-29T08:35:09.935Z,32.4
2017-07-29T08:36:10.273Z,32.4
2017-07-29T08:37:13.163Z,32.4
2017-07-29T08:38:10.310Z,32.4
2017-07-29T08:39:10.951Z,32.4
2017-07-29T08:40:10.113Z,32.4
2017-07-29T08:41:10.139Z,32.5
2017-07-29T08:42:15.409Z,32.5
2017-07-29T08:43:10.214Z,32.4
2017-07-29T08:44:15.596Z,32.4
2017-07-29T08:45:10.952Z,32.4
2017-07-29T08:46:15.377Z,32.4
2017-07-29T08:47:14.090Z,32.5
2017-07-29T08:48:10.892Z,32.5
2017-07-29T08:49:15.935Z,32.4
2017-07-29T08:50:10.724Z,32.5
2017-07-29T08:51:13.942Z,32.5
2017-07-29T08:52:11.128Z,32.5
2017-07-29T08:53:13.760Z,32.5
2017-07-29T08:54:14.140Z,32.5
2017-07-29T08:55:15.910Z,32.5
2017-07-29T08:56:11.496Z,32.5
2017-07-29T08:57:16.651Z,32.5
2017-07-29T08:58:14.306Z,32.5
2017-07-29T08:59:11.217Z,32.5
2017-07-29T09:00:14.431Z,32.6
2017-07-29T09:01:14.201Z,32.6
2017-07-29T09:02:16.723Z,32.7
2017-07-29T09:03:14.926Z,32.7
2017-07-29T09:04:14.420Z,32.8
2017-07-29T09:05:11.625Z,32.7
2017-07-29T09:06:14.537Z,32.7
2017-07-29T09:07:16.709Z,32.7
2017-07-29T09:08:11.754Z,32.7
2017-07-29T09:09:15.215Z,32.6
2017-07-29T09:10:14.614Z,32.7
2017-07-29T09:11:12.176Z,32.7
2017-07-29T09:12:11.891Z,32.7
2017-07-29T09:13:11.912Z,32.7
2017-07-29T09:14:15.093Z,32.7
2017-07-29T09:15:17.451Z,32.7
2017-07-29T09:16:11.936Z,32.6
2017-07-29T09:17:14.796Z,32.6
2017-07-29T09:18:17.277Z,32.6
2017-07-29T09:19:12.076Z,32.6
2017-07-29T09:20:12.446Z,32.7
2017-07-29T09:21:12.523Z,32.7
2017-07-29T09:22:17.516Z,32.8
2017-07-29T09:23:12.544Z,32.9
2017-07-29T09:24:12.584Z,33
2017-07-29T09:25:17.312Z,33.1
2017-07-29T09:26:18.325Z,33.2
2017-07-29T09:27:15.660Z,33.3
2017-07-29T09:28:17.443Z,33.4
2017-07-29T09:29:15.693Z,33.5
2017-07-29T09:30:15.390Z,33.6
2017-07-29T09:31:15.417Z,33.7
2017-07-29T09:32:12.641Z,33.7
2017-07-29T09:33:13.258Z,33.7
2017-07-29T09:34:17.738Z,33.8
2017-07-29T09:35:13.091Z,33.8
2017-07-29T09:36:17.880Z,33.7
2017-07-29T09:37:15.818Z,33.7
2017-07-29T09:38:13.085Z,33.7
2017-07-29T09:39:13.343Z,33.7
2017-07-29T09:40:18.469Z,33.7
2017-07-29T09:41:16.043Z,33.6
2017-07-29T09:42:18.153Z,33.7
2017-07-29T09:43:16.426Z,33.7
2017-07-29T09:44:13.382Z,33.7
2017-07-29T09:45:13.758Z,33.7
2017-07-29T09:46:18.697Z,33.6
2017-07-29T09:47:13.386Z,33.6
2017-07-29T09:48:16.324Z,33.6
2017-07-29T09:49:13.791Z,33.6
2017-07-29T09:50:13.836Z,33.6
2017-07-29T09:51:18.833Z,33.5
2017-07-29T09:52:13.924Z,33.5
2017-07-29T09:53:18.670Z,33.4
2017-07-29T09:54:16.605Z,33.3
2017-07-29T09:55:14.114Z,33.2
2017-07-29T09:56:16.704Z,33.1
2017-07-29T09:57:19.127Z,33
2017-07-29T09:58:17.112Z,33
2017-07-29T09:59:17.749Z,32.9
2017-07-29T10:00:19.274Z,32.8
2017-07-29T10:01:16.926Z,32.8
2017-07-29T10:02:19.100Z,32.7
2017-07-29T10:03:14.758Z,32.7
2017-07-29T10:04:14.744Z,32.6
2017-07-29T10:05:17.433Z,32.6
2017-07-29T10:06:19.645Z,32.5
2017-07-29T10:07:14.582Z,32.5
2017-07-29T10:08:15.784Z,32.5
2017-07-29T10:09:20.328Z,32.5
2017-07-29T10:10:20.024Z,32.5
2017-07-29T10:11:14.911Z,32.5
2017-07-29T10:12:18.454Z,32.5
2017-07-29T10:13:18.117Z,32.5
2017-07-29T10:14:18.321Z,32.5
2017-07-29T10:15:20.537Z,32.5
2017-07-29T10:16:15.263Z,32.5
2017-07-29T10:17:15.387Z,32.5
2017-07-29T10:18:15.112Z,32.5
2017-07-29T10:19:18.137Z,32.5
2017-07-29T10:20:17.136Z,32.5
2017-07-29T10:21:20.877Z,32.5
2017-07-29T10:22:20.395Z,32.4
2017-07-29T10:23:15.235Z,32.4
2017-07-29T10:24:15.658Z,32.4
2017-07-29T10:25:17.060Z,32.4
2017-07-29T10:26:20.919Z,32.3
2017-07-29T10:27:15.825Z,32.3
2017-07-29T10:28:15.960Z,32.3
2017-07-29T10:29:15.975Z,32.3
2017-07-29T10:30:15.636Z,32.3
2017-07-29T10:31:19.408Z,32.4
2017-07-29T10:32:18.642Z,32.5
2017-07-29T10:33:15.965Z,32.5
2017-07-29T10:34:18.701Z,32.6
2017-07-29T10:35:20.516Z,32.6
2017-07-29T10:36:15.916Z,32.7
2017-07-29T10:37:15.708Z,32.7
2017-07-29T10:38:18.893Z,32.8
2017-07-29T10:39:16.434Z,32.8
2017-07-29T10:40:15.845Z,32.9
2017-07-29T10:41:16.272Z,33
2017-07-29T10:42:16.068Z,33.1
2017-07-29T10:43:22.336Z,33.2
2017-07-29T10:44:21.105Z,33.3
2017-07-29T10:45:21.437Z,33.5
2017-07-29T10:46:16.231Z,33.6
2017-07-29T10:47:16.986Z,33.7
2017-07-29T10:48:16.388Z,33.8
2017-07-29T10:49:16.454Z,33.9
2017-07-29T10:50:19.627Z,33.9
2017-07-29T10:51:17.116Z,33.9
2017-07-29T10:52:16.541Z,33.8
2017-07-29T10:53:16.557Z,33.9
2017-07-29T10:54:19.526Z,33.9
2017-07-29T10:55:16.706Z,33.9
2017-07-29T10:56:16.772Z,33.9
2017-07-29T10:57:17.101Z,34
2017-07-29T10:58:21.791Z,34
2017-07-29T10:59:17.189Z,33.9
2017-07-29T11:00:17.038Z,33.8
2017-07-29T11:01:22.322Z,33.8
2017-07-29T11:02:20.361Z,33.8
2017-07-29T11:03:17.204Z,33.8
2017-07-29T11:04:22.228Z,33.8
2017-07-29T11:05:22.316Z,33.8
2017-07-29T11:06:22.290Z,33.8
2017-07-29T11:07:17.654Z,33.8
2017-07-29T11:08:17.461Z,34.1
2017-07-29T11:09:20.694Z,34.3
2017-07-29T11:10:22.493Z,34.2
2017-07-29T11:11:17.872Z,34.1
2017-07-29T11:12:22.967Z,34.1
2017-07-29T11:13:24.288Z,34.2
2017-07-29T11:14:18.094Z,34.6
2017-07-29T11:15:18.158Z,34.9
2017-07-29T11:16:21.174Z,35.1
2017-07-29T11:17:17.990Z,35.5
2017-07-29T11:18:18.021Z,35.7
2017-07-29T11:19:20.891Z,35.6
2017-07-29T11:20:18.441Z,35.3
2017-07-29T11:21:21.060Z,35
2017-07-29T11:22:21.369Z,34.9
2017-07-29T11:23:18.189Z,35
2017-07-29T11:24:18.497Z,34.8
2017-07-29T11:25:21.383Z,34.6
2017-07-29T11:26:18.528Z,34.4
2017-07-29T11:27:18.964Z,34.4
2017-07-29T11:28:19.857Z,34.7
2017-07-29T11:29:18.356Z,34.9
2017-07-29T11:30:18.407Z,35
2017-07-29T11:31:18.711Z,35
2017-07-29T11:32:18.458Z,35.5
2017-07-29T11:33:23.800Z,35.5
2017-07-29T11:34:23.783Z,35.3
2017-07-29T11:35:21.454Z,35.1
2017-07-29T11:36:21.521Z,35
2017-07-29T11:37:19.016Z,34.9
2017-07-29T11:38:23.744Z,34.8
2017-07-29T11:39:23.747Z,35
2017-07-29T11:40:24.041Z,35.1
2017-07-29T11:41:24.197Z,35
2017-07-29T11:42:21.780Z,34.9
2017-07-29T11:43:24.201Z,35
2017-07-29T11:44:22.842Z,35
2017-07-29T11:45:23.979Z,35.3
2017-07-29T11:46:23.437Z,35.5
2017-07-29T11:47:22.287Z,35.8
2017-07-29T11:48:19.465Z,35.9
2017-07-29T11:49:25.108Z,35.9
2017-07-29T11:50:22.490Z,35.8
2017-07-29T11:51:19.577Z,35.5
2017-07-29T11:52:19.284Z,35.2
2017-07-29T11:53:19.597Z,35
2017-07-29T11:54:20.192Z,35.1
2017-07-29T11:55:25.242Z,35.4
2017-07-29T11:56:24.779Z,35.5
2017-07-29T11:57:22.762Z,35.7
2017-07-29T11:58:23.423Z,35.7
2017-07-29T11:59:23.416Z,35.6
2017-07-29T12:00:24.964Z,35.7
2017-07-29T12:01:19.983Z,35.8
2017-07-29T12:02:19.699Z,35.8
2017-07-29T12:03:23.342Z,35.9
2017-07-29T12:04:25.168Z,35.9
2017-07-29T12:05:22.749Z,35.9
2017-07-29T12:06:20.241Z,35.8
2017-07-29T12:07:20.289Z,35.8
2017-07-29T12:08:23.257Z,35.8
2017-07-29T12:09:21.044Z,35.9
2017-07-29T12:10:20.426Z,35.9
2017-07-29T12:11:23.063Z,35.9
2017-07-29T12:12:25.172Z,35.8
2017-07-29T12:13:21.743Z,35.9
2017-07-29T12:14:20.634Z,35.7
2017-07-29T12:15:23.823Z,35.5
2017-07-29T12:16:20.699Z,35.1
2017-07-29T12:17:25.757Z,34.9
2017-07-29T12:18:20.484Z,34.7
2017-07-29T12:19:20.560Z,34.5
2017-07-29T12:20:21.008Z,34.3
2017-07-29T12:21:25.944Z,34.1
2017-07-29T12:22:20.639Z,34
2017-07-29T12:23:20.732Z,33.9
2017-07-29T12:24:20.843Z,33.8
2017-07-29T12:25:21.257Z,33.7
2017-07-29T12:26:25.934Z,33.6
2017-07-29T12:27:26.309Z,33.5
2017-07-29T12:28:21.377Z,33.5
2017-07-29T12:29:26.476Z,33.4
2017-07-29T12:30:21.804Z,33.3
2017-07-29T12:31:27.274Z,33.3
2017-07-29T12:32:21.317Z,33.2
2017-07-29T12:33:21.363Z,33.2
2017-07-29T12:34:21.695Z,33.2
2017-07-29T12:35:21.849Z,33.1
2017-07-29T12:36:21.581Z,33
2017-07-29T12:37:25.455Z,33.1
2017-07-29T12:38:21.934Z,33
2017-07-29T12:39:27.474Z,33
2017-07-29T12:40:22.291Z,33
2017-07-29T12:41:27.015Z,32.9
2017-07-29T12:42:21.799Z,32.9
2017-07-29T12:43:26.865Z,32.8
2017-07-29T12:44:22.229Z,32.9
2017-07-29T12:45:21.978Z,32.8
2017-07-29T12:46:22.083Z,32.8
2017-07-29T12:47:22.084Z,32.8
2017-07-29T12:48:28.076Z,32.8
2017-07-29T12:49:22.206Z,32.8
2017-07-29T12:50:22.230Z,32.7
2017-07-29T12:51:22.207Z,32.7
2017-07-29T12:52:22.591Z,32.7
2017-07-29T12:53:27.882Z,32.7
2017-07-29T12:54:27.300Z,32.7
2017-07-29T12:55:22.614Z,32.7
2017-07-29T12:56:25.597Z,32.6
2017-07-29T12:57:22.773Z,32.7
2017-07-29T12:58:22.523Z,32.6
2017-07-29T12:59:28.552Z,32.6
2017-07-29T13:00:22.900Z,32.6
2017-07-29T13:01:25.875Z,32.6
2017-07-29T13:02:27.629Z,32.5
2017-07-29T13:03:23.057Z,32.6
2017-07-29T13:04:22.808Z,32.5
2017-07-29T13:05:26.046Z,32.5
2017-07-29T13:06:22.908Z,32.5
2017-07-29T13:07:22.977Z,32.5
2017-07-29T13:08:23.065Z,32.5
2017-07-29T13:09:23.129Z,32.5
2017-07-29T13:10:28.478Z,32.5
2017-07-29T13:11:23.317Z,32.4
2017-07-29T13:12:26.557Z,32.5
2017-07-29T13:13:23.428Z,32.4
2017-07-29T13:14:23.800Z,32.4
2017-07-29T13:15:26.408Z,32.4
2017-07-29T13:16:28.948Z,32.4
2017-07-29T13:17:25.122Z,32.4
2017-07-29T13:18:24.050Z,32.4
2017-07-29T13:19:27.007Z,32.4
2017-07-29T13:20:25.345Z,32.4
2017-07-29T13:21:24.236Z,32.4
2017-07-29T13:22:24.237Z,32.4